sensor_id;sensor_type;location;lat;lon;timestamp;P1;durP1;ratioP1;P2;durP2;ratioP2
8297;SDS011;4187;42.778;23.242;2023-04-09T00:00:17;20.43;;;17.03;;
8297;SDS011;4187;42.778;23.242;2023-04-09T00:02:44;18.57;;;16.70;;
8297;SDS011;4187;42.778;23.242;2023-04-09T00:05:12;22.23;;;19.17;;
8297;SDS011;4187;42.778;23.242;2023-04-09T00:07:39;26.47;;;23.77;;
8297;SDS011;4187;42.778;23.242;2023-04-09T00:10:08;27.90;;;24.33;;
8297;SDS011;4187;42.778;23.242;2023-04-09T00:12:35;30.53;;;27.17;;
8297;SDS011;4187;42.778;23.242;2023-04-09T00:15:02;31.43;;;27.70;;
8297;SDS011;4187;42.778;23.242;2023-04-09T00:17:30;31.33;;;27.63;;
8297;SDS011;4187;42.778;23.242;2023-04-09T00:19:57;31.63;;;27.20;;
8297;SDS011;4187;42.778;23.242;2023-04-09T00:22:24;26.63;;;23.93;;
8297;SDS011;4187;42.778;23.242;2023-04-09T00:24:51;30.33;;;25.50;;
8297;SDS011;4187;42.778;23.242;2023-04-09T00:27:21;24.90;;;22.27;;
8297;SDS011;4187;42.778;23.242;2023-04-09T00:29:49;25.27;;;22.70;;
8297;SDS011;4187;42.778;23.242;2023-04-09T00:32:16;26.63;;;23.83;;
8297;SDS011;4187;42.778;23.242;2023-04-09T00:34:43;26.13;;;23.33;;
8297;SDS011;4187;42.778;23.242;2023-04-09T00:37:10;26.17;;;23.57;;
8297;SDS011;4187;42.778;23.242;2023-04-09T00:39:36;27.10;;;24.27;;
8297;SDS011;4187;42.778;23.242;2023-04-09T00:42:03;30.53;;;27.23;;
8297;SDS011;4187;42.778;23.242;2023-04-09T00:44:31;28.13;;;25.13;;
8297;SDS011;4187;42.778;23.242;2023-04-09T00:46:58;28.57;;;25.53;;
8297;SDS011;4187;42.778;23.242;2023-04-09T00:49:25;28.23;;;25.23;;
8297;SDS011;4187;42.778;23.242;2023-04-09T00:51:53;21.43;;;19.20;;
8297;SDS011;4187;42.778;23.242;2023-04-09T00:54:20;22.50;;;18.77;;
8297;SDS011;4187;42.778;23.242;2023-04-09T00:56:47;20.03;;;17.73;;
8297;SDS011;4187;42.778;23.242;2023-04-09T00:59:15;20.93;;;18.77;;
8297;SDS011;4187;42.778;23.242;2023-04-09T01:01:43;22.93;;;20.53;;
8297;SDS011;4187;42.778;23.242;2023-04-09T01:04:10;22.40;;;19.43;;
8297;SDS011;4187;42.778;23.242;2023-04-09T01:06:38;27.63;;;24.60;;
8297;SDS011;4187;42.778;23.242;2023-04-09T01:09:12;27.20;;;24.43;;
8297;SDS011;4187;42.778;23.242;2023-04-09T01:11:45;20.73;;;18.53;;
8297;SDS011;4187;42.778;23.242;2023-04-09T01:14:23;19.30;;;17.07;;
8297;SDS011;4187;42.778;23.242;2023-04-09T01:16:59;19.70;;;17.60;;
8297;SDS011;4187;42.778;23.242;2023-04-09T01:19:34;18.07;;;16.20;;
8297;SDS011;4187;42.778;23.242;2023-04-09T01:22:09;16.60;;;14.90;;
8297;SDS011;4187;42.778;23.242;2023-04-09T01:24:54;19.07;;;17.23;;
8297;SDS011;4187;42.778;23.242;2023-04-09T01:27:27;21.77;;;19.60;;
8297;SDS011;4187;42.778;23.242;2023-04-09T01:30:05;19.07;;;17.27;;
8297;SDS011;4187;42.778;23.242;2023-04-09T01:32:34;20.40;;;18.40;;
8297;SDS011;4187;42.778;23.242;2023-04-09T01:35:04;25.97;;;23.63;;
8297;SDS011;4187;42.778;23.242;2023-04-09T01:37:32;23.27;;;21.13;;
8297;SDS011;4187;42.778;23.242;2023-04-09T01:40:01;19.83;;;17.83;;
8297;SDS011;4187;42.778;23.242;2023-04-09T01:42:30;19.40;;;17.33;;
8297;SDS011;4187;42.778;23.242;2023-04-09T01:44:58;18.83;;;16.93;;
8297;SDS011;4187;42.778;23.242;2023-04-09T01:47:29;18.50;;;16.47;;
8297;SDS011;4187;42.778;23.242;2023-04-09T01:49:58;19.00;;;17.10;;
8297;SDS011;4187;42.778;23.242;2023-04-09T01:52:25;19.10;;;17.10;;
8297;SDS011;4187;42.778;23.242;2023-04-09T01:54:52;18.40;;;16.47;;
8297;SDS011;4187;42.778;23.242;2023-04-09T01:57:19;20.03;;;17.93;;
8297;SDS011;4187;42.778;23.242;2023-04-09T01:59:46;19.80;;;17.70;;
8297;SDS011;4187;42.778;23.242;2023-04-09T02:02:16;19.40;;;17.30;;
8297;SDS011;4187;42.778;23.242;2023-04-09T02:04:47;31.77;;;26.23;;
8297;SDS011;4187;42.778;23.242;2023-04-09T02:07:19;37.03;;;28.90;;
8297;SDS011;4187;42.778;23.242;2023-04-09T02:09:51;19.37;;;16.83;;
8297;SDS011;4187;42.778;23.242;2023-04-09T02:12:19;19.43;;;17.43;;
8297;SDS011;4187;42.778;23.242;2023-04-09T02:14:49;22.13;;;19.77;;
8297;SDS011;4187;42.778;23.242;2023-04-09T02:17:17;20.20;;;18.03;;
8297;SDS011;4187;42.778;23.242;2023-04-09T02:19:45;17.37;;;15.60;;
8297;SDS011;4187;42.778;23.242;2023-04-09T02:22:13;29.50;;;25.93;;
8297;SDS011;4187;42.778;23.242;2023-04-09T02:24:40;38.17;;;31.73;;
8297;SDS011;4187;42.778;23.242;2023-04-09T02:27:07;46.07;;;34.53;;
8297;SDS011;4187;42.778;23.242;2023-04-09T02:29:34;27.67;;;22.20;;
8297;SDS011;4187;42.778;23.242;2023-04-09T02:32:01;17.37;;;15.57;;
8297;SDS011;4187;42.778;23.242;2023-04-09T02:34:28;16.67;;;14.97;;
8297;SDS011;4187;42.778;23.242;2023-04-09T02:36:56;19.60;;;17.00;;
8297;SDS011;4187;42.778;23.242;2023-04-09T02:39:23;32.77;;;24.30;;
8297;SDS011;4187;42.778;23.242;2023-04-09T02:41:51;27.70;;;20.70;;
8297;SDS011;4187;42.778;23.242;2023-04-09T02:44:18;21.97;;;18.37;;
8297;SDS011;4187;42.778;23.242;2023-04-09T02:46:45;19.27;;;16.30;;
8297;SDS011;4187;42.778;23.242;2023-04-09T02:49:13;18.80;;;16.80;;
8297;SDS011;4187;42.778;23.242;2023-04-09T02:51:40;19.90;;;17.80;;
8297;SDS011;4187;42.778;23.242;2023-04-09T02:54:08;21.97;;;19.70;;
8297;SDS011;4187;42.778;23.242;2023-04-09T02:56:35;21.97;;;19.37;;
8297;SDS011;4187;42.778;23.242;2023-04-09T02:59:02;23.17;;;20.27;;
8297;SDS011;4187;42.778;23.242;2023-04-09T03:01:28;24.70;;;19.63;;
8297;SDS011;4187;42.778;23.242;2023-04-09T03:03:55;21.73;;;18.97;;
8297;SDS011;4187;42.778;23.242;2023-04-09T03:06:22;22.37;;;19.17;;
8297;SDS011;4187;42.778;23.242;2023-04-09T03:08:49;21.17;;;18.80;;
8297;SDS011;4187;42.778;23.242;2023-04-09T03:11:17;22.90;;;20.50;;
8297;SDS011;4187;42.778;23.242;2023-04-09T03:13:44;21.80;;;19.30;;
8297;SDS011;4187;42.778;23.242;2023-04-09T03:16:11;22.40;;;19.40;;
8297;SDS011;4187;42.778;23.242;2023-04-09T03:18:37;22.27;;;19.87;;
8297;SDS011;4187;42.778;23.242;2023-04-09T03:21:04;25.30;;;21.80;;
8297;SDS011;4187;42.778;23.242;2023-04-09T03:23:32;21.80;;;19.43;;
8297;SDS011;4187;42.778;23.242;2023-04-09T03:26:01;23.53;;;20.60;;
8297;SDS011;4187;42.778;23.242;2023-04-09T03:28:29;22.10;;;19.77;;
8297;SDS011;4187;42.778;23.242;2023-04-09T03:30:56;22.10;;;19.80;;
8297;SDS011;4187;42.778;23.242;2023-04-09T03:33:23;22.30;;;19.87;;
8297;SDS011;4187;42.778;23.242;2023-04-09T03:35:50;22.37;;;20.07;;
8297;SDS011;4187;42.778;23.242;2023-04-09T03:38:17;22.93;;;20.53;;
8297;SDS011;4187;42.778;23.242;2023-04-09T03:40:47;24.50;;;20.97;;
8297;SDS011;4187;42.778;23.242;2023-04-09T03:43:14;32.10;;;25.07;;
8297;SDS011;4187;42.778;23.242;2023-04-09T03:45:42;54.27;;;36.87;;
8297;SDS011;4187;42.778;23.242;2023-04-09T03:48:08;57.57;;;39.23;;
8297;SDS011;4187;42.778;23.242;2023-04-09T03:50:38;50.00;;;35.43;;
8297;SDS011;4187;42.778;23.242;2023-04-09T03:53:05;35.43;;;26.30;;
8297;SDS011;4187;42.778;23.242;2023-04-09T03:55:32;26.43;;;23.60;;
8297;SDS011;4187;42.778;23.242;2023-04-09T03:57:59;23.87;;;21.37;;
8297;SDS011;4187;42.778;23.242;2023-04-09T04:00:26;25.37;;;22.80;;
8297;SDS011;4187;42.778;23.242;2023-04-09T04:02:55;26.63;;;24.07;;
8297;SDS011;4187;42.778;23.242;2023-04-09T04:05:22;25.30;;;22.80;;
8297;SDS011;4187;42.778;23.242;2023-04-09T04:07:51;23.67;;;21.23;;
8297;SDS011;4187;42.778;23.242;2023-04-09T04:10:18;22.43;;;19.80;;
8297;SDS011;4187;42.778;23.242;2023-04-09T04:12:45;20.60;;;16.17;;
8297;SDS011;4187;42.778;23.242;2023-04-09T04:15:12;19.48;;;17.48;;
8297;SDS011;4187;42.778;23.242;2023-04-09T04:17:39;19.48;;;17.38;;
8297;SDS011;4187;42.778;23.242;2023-04-09T04:20:08;20.65;;;18.25;;
8297;SDS011;4187;42.778;23.242;2023-04-09T04:22:36;20.30;;;17.90;;
8297;SDS011;4187;42.778;23.242;2023-04-09T04:25:03;19.52;;;17.63;;
8297;SDS011;4187;42.778;23.242;2023-04-09T04:27:30;19.73;;;17.67;;
8297;SDS011;4187;42.778;23.242;2023-04-09T04:29:57;20.85;;;18.58;;
8297;SDS011;4187;42.778;23.242;2023-04-09T04:32:26;24.67;;;19.77;;
8297;SDS011;4187;42.778;23.242;2023-04-09T04:34:53;21.27;;;19.03;;
8297;SDS011;4187;42.778;23.242;2023-04-09T04:37:21;24.30;;;20.47;;
8297;SDS011;4187;42.778;23.242;2023-04-09T04:39:48;27.83;;;20.83;;
8297;SDS011;4187;42.778;23.242;2023-04-09T04:42:15;26.57;;;23.63;;
8297;SDS011;4187;42.778;23.242;2023-04-09T04:44:42;23.73;;;21.17;;
8297;SDS011;4187;42.778;23.242;2023-04-09T04:47:08;25.60;;;21.03;;
8297;SDS011;4187;42.778;23.242;2023-04-09T04:49:35;25.37;;;20.90;;
8297;SDS011;4187;42.778;23.242;2023-04-09T04:52:02;31.23;;;24.10;;
8297;SDS011;4187;42.778;23.242;2023-04-09T04:54:30;37.07;;;26.73;;
8297;SDS011;4187;42.778;23.242;2023-04-09T04:56:58;87.30;;;45.70;;
8297;SDS011;4187;42.778;23.242;2023-04-09T04:59:25;92.40;;;48.83;;
8297;SDS011;4187;42.778;23.242;2023-04-09T05:01:52;93.27;;;46.73;;
8297;SDS011;4187;42.778;23.242;2023-04-09T05:04:19;102.73;;;51.50;;
8297;SDS011;4187;42.778;23.242;2023-04-09T05:06:46;132.13;;;63.67;;
8297;SDS011;4187;42.778;23.242;2023-04-09T05:09:13;60.90;;;36.17;;
8297;SDS011;4187;42.778;23.242;2023-04-09T05:11:41;24.63;;;21.60;;
8297;SDS011;4187;42.778;23.242;2023-04-09T05:14:08;22.00;;;18.20;;
8297;SDS011;4187;42.778;23.242;2023-04-09T05:16:34;21.20;;;18.47;;
8297;SDS011;4187;42.778;23.242;2023-04-09T05:19:01;22.10;;;19.70;;
8297;SDS011;4187;42.778;23.242;2023-04-09T05:21:28;20.60;;;17.57;;
8297;SDS011;4187;42.778;23.242;2023-04-09T05:23:55;19.53;;;17.43;;
8297;SDS011;4187;42.778;23.242;2023-04-09T05:26:23;18.67;;;16.57;;
8297;SDS011;4187;42.778;23.242;2023-04-09T05:28:51;18.73;;;16.17;;
8297;SDS011;4187;42.778;23.242;2023-04-09T05:31:18;18.47;;;15.93;;
8297;SDS011;4187;42.778;23.242;2023-04-09T05:33:45;18.57;;;15.93;;
8297;SDS011;4187;42.778;23.242;2023-04-09T05:36:13;19.27;;;17.13;;
8297;SDS011;4187;42.778;23.242;2023-04-09T05:38:41;18.77;;;16.00;;
8297;SDS011;4187;42.778;23.242;2023-04-09T05:41:08;18.33;;;16.17;;
8297;SDS011;4187;42.778;23.242;2023-04-09T05:43:35;20.20;;;16.83;;
8297;SDS011;4187;42.778;23.242;2023-04-09T05:46:03;20.87;;;16.87;;
8297;SDS011;4187;42.778;23.242;2023-04-09T05:48:30;19.53;;;17.33;;
8297;SDS011;4187;42.778;23.242;2023-04-09T05:51:00;19.43;;;15.63;;
8297;SDS011;4187;42.778;23.242;2023-04-09T05:53:27;18.90;;;15.90;;
8297;SDS011;4187;42.778;23.242;2023-04-09T05:55:55;19.43;;;15.90;;
8297;SDS011;4187;42.778;23.242;2023-04-09T05:58:22;16.13;;;14.47;;
8297;SDS011;4187;42.778;23.242;2023-04-09T06:00:49;18.30;;;14.30;;
8297;SDS011;4187;42.778;23.242;2023-04-09T06:03:18;16.07;;;14.37;;
8297;SDS011;4187;42.778;23.242;2023-04-09T06:05:45;16.23;;;14.53;;
8297;SDS011;4187;42.778;23.242;2023-04-09T06:08:12;16.33;;;13.80;;
8297;SDS011;4187;42.778;23.242;2023-04-09T06:10:39;16.87;;;15.03;;
8297;SDS011;4187;42.778;23.242;2023-04-09T06:13:06;18.47;;;16.57;;
8297;SDS011;4187;42.778;23.242;2023-04-09T06:15:32;16.43;;;13.97;;
8297;SDS011;4187;42.778;23.242;2023-04-09T06:18:00;17.97;;;15.70;;
8297;SDS011;4187;42.778;23.242;2023-04-09T06:20:28;17.37;;;15.10;;
8297;SDS011;4187;42.778;23.242;2023-04-09T06:22:55;18.23;;;16.13;;
8297;SDS011;4187;42.778;23.242;2023-04-09T06:25:22;19.80;;;16.60;;
8297;SDS011;4187;42.778;23.242;2023-04-09T06:27:49;15.90;;;14.23;;
8297;SDS011;4187;42.778;23.242;2023-04-09T06:30:17;17.33;;;14.50;;
8297;SDS011;4187;42.778;23.242;2023-04-09T06:32:44;18.77;;;15.00;;
8297;SDS011;4187;42.778;23.242;2023-04-09T06:35:12;19.27;;;13.57;;
8297;SDS011;4187;42.778;23.242;2023-04-09T06:37:40;15.83;;;14.00;;
8297;SDS011;4187;42.778;23.242;2023-04-09T06:40:08;15.77;;;13.83;;
8297;SDS011;4187;42.778;23.242;2023-04-09T06:42:35;17.60;;;14.67;;
8297;SDS011;4187;42.778;23.242;2023-04-09T06:45:03;16.20;;;14.10;;
8297;SDS011;4187;42.778;23.242;2023-04-09T06:47:32;14.55;;;13.02;;
8297;SDS011;4187;42.778;23.242;2023-04-09T06:49:59;15.50;;;13.70;;
8297;SDS011;4187;42.778;23.242;2023-04-09T06:52:26;12.77;;;11.38;;
8297;SDS011;4187;42.778;23.242;2023-04-09T06:54:54;11.70;;;10.55;;
8297;SDS011;4187;42.778;23.242;2023-04-09T06:57:21;12.80;;;11.50;;
8297;SDS011;4187;42.778;23.242;2023-04-09T06:59:48;11.98;;;10.77;;
8297;SDS011;4187;42.778;23.242;2023-04-09T07:02:15;12.00;;;10.90;;
8297;SDS011;4187;42.778;23.242;2023-04-09T07:04:42;13.37;;;12.07;;
8297;SDS011;4187;42.778;23.242;2023-04-09T07:07:09;13.15;;;11.75;;
8297;SDS011;4187;42.778;23.242;2023-04-09T07:09:36;12.83;;;11.53;;
8297;SDS011;4187;42.778;23.242;2023-04-09T07:12:05;11.60;;;10.45;;
8297;SDS011;4187;42.778;23.242;2023-04-09T07:14:31;10.82;;;9.73;;
8297;SDS011;4187;42.778;23.242;2023-04-09T07:16:58;12.68;;;11.38;;
8297;SDS011;4187;42.778;23.242;2023-04-09T07:19:25;11.85;;;10.65;;
8297;SDS011;4187;42.778;23.242;2023-04-09T07:21:52;11.95;;;10.30;;
8297;SDS011;4187;42.778;23.242;2023-04-09T07:24:19;13.32;;;11.93;;
8297;SDS011;4187;42.778;23.242;2023-04-09T07:26:45;10.90;;;9.85;;
8297;SDS011;4187;42.778;23.242;2023-04-09T07:29:14;11.90;;;10.57;;
8297;SDS011;4187;42.778;23.242;2023-04-09T07:31:40;11.07;;;10.00;;
8297;SDS011;4187;42.778;23.242;2023-04-09T07:34:08;10.82;;;9.73;;
8297;SDS011;4187;42.778;23.242;2023-04-09T07:36:35;10.98;;;9.85;;
8297;SDS011;4187;42.778;23.242;2023-04-09T07:39:02;12.98;;;11.68;;
8297;SDS011;4187;42.778;23.242;2023-04-09T07:41:29;10.98;;;9.82;;
8297;SDS011;4187;42.778;23.242;2023-04-09T07:43:56;13.23;;;11.80;;
8297;SDS011;4187;42.778;23.242;2023-04-09T07:46:24;13.40;;;12.02;;
8297;SDS011;4187;42.778;23.242;2023-04-09T07:48:51;13.52;;;12.13;;
8297;SDS011;4187;42.778;23.242;2023-04-09T07:51:18;13.45;;;12.05;;
8297;SDS011;4187;42.778;23.242;2023-04-09T07:53:45;14.93;;;13.35;;
8297;SDS011;4187;42.778;23.242;2023-04-09T07:56:11;15.60;;;13.57;;
8297;SDS011;4187;42.778;23.242;2023-04-09T07:58:38;16.13;;;12.57;;
8297;SDS011;4187;42.778;23.242;2023-04-09T08:01:05;10.80;;;9.73;;
8297;SDS011;4187;42.778;23.242;2023-04-09T08:03:33;10.77;;;9.77;;
8297;SDS011;4187;42.778;23.242;2023-04-09T08:06:01;11.65;;;10.55;;
8297;SDS011;4187;42.778;23.242;2023-04-09T08:08:27;9.80;;;8.77;;
8297;SDS011;4187;42.778;23.242;2023-04-09T08:10:55;11.88;;;10.45;;
8297;SDS011;4187;42.778;23.242;2023-04-09T08:13:25;11.73;;;8.80;;
8297;SDS011;4187;42.778;23.242;2023-04-09T08:15:52;11.10;;;10.02;;
8297;SDS011;4187;42.778;23.242;2023-04-09T08:18:20;12.85;;;11.05;;
8297;SDS011;4187;42.778;23.242;2023-04-09T08:20:49;11.95;;;9.50;;
8297;SDS011;4187;42.778;23.242;2023-04-09T08:23:16;12.43;;;11.15;;
8297;SDS011;4187;42.778;23.242;2023-04-09T08:25:42;11.93;;;10.77;;
8297;SDS011;4187;42.778;23.242;2023-04-09T08:28:09;15.25;;;13.85;;
8297;SDS011;4187;42.778;23.242;2023-04-09T08:30:36;14.52;;;12.27;;
8297;SDS011;4187;42.778;23.242;2023-04-09T08:33:03;12.77;;;10.90;;
8297;SDS011;4187;42.778;23.242;2023-04-09T08:35:30;10.98;;;9.88;;
8297;SDS011;4187;42.778;23.242;2023-04-09T08:37:59;9.98;;;9.00;;
8297;SDS011;4187;42.778;23.242;2023-04-09T08:40:26;16.80;;;12.32;;
8297;SDS011;4187;42.778;23.242;2023-04-09T08:42:53;11.55;;;10.35;;
8297;SDS011;4187;42.778;23.242;2023-04-09T08:45:21;10.63;;;9.52;;
8297;SDS011;4187;42.778;23.242;2023-04-09T08:47:48;11.07;;;9.48;;
8297;SDS011;4187;42.778;23.242;2023-04-09T08:50:16;14.70;;;11.75;;
8297;SDS011;4187;42.778;23.242;2023-04-09T08:52:44;11.70;;;10.55;;
8297;SDS011;4187;42.778;23.242;2023-04-09T08:55:13;12.48;;;11.27;;
8297;SDS011;4187;42.778;23.242;2023-04-09T08:57:40;15.80;;;12.55;;
8297;SDS011;4187;42.778;23.242;2023-04-09T09:00:08;23.23;;;13.65;;
8297;SDS011;4187;42.778;23.242;2023-04-09T09:02:35;21.52;;;14.68;;
8297;SDS011;4187;42.778;23.242;2023-04-09T09:05:03;12.27;;;10.98;;
8297;SDS011;4187;42.778;23.242;2023-04-09T09:07:30;12.82;;;11.05;;
8297;SDS011;4187;42.778;23.242;2023-04-09T09:09:58;19.50;;;15.05;;
8297;SDS011;4187;42.778;23.242;2023-04-09T09:12:35;11.30;;;10.27;;
8297;SDS011;4187;42.778;23.242;2023-04-09T09:15:04;13.18;;;9.52;;
8297;SDS011;4187;42.778;23.242;2023-04-09T09:17:52;10.82;;;9.82;;
8297;SDS011;4187;42.778;23.242;2023-04-09T09:20:20;11.27;;;10.15;;
8297;SDS011;4187;42.778;23.242;2023-04-09T09:22:48;11.15;;;10.05;;
8297;SDS011;4187;42.778;23.242;2023-04-09T09:25:15;11.00;;;9.90;;
8297;SDS011;4187;42.778;23.242;2023-04-09T09:27:44;10.18;;;9.13;;
8297;SDS011;4187;42.778;23.242;2023-04-09T09:30:19;10.63;;;9.63;;
8297;SDS011;4187;42.778;23.242;2023-04-09T09:32:47;10.68;;;7.95;;
8297;SDS011;4187;42.778;23.242;2023-04-09T09:35:17;10.20;;;9.10;;
8297;SDS011;4187;42.778;23.242;2023-04-09T09:37:44;11.00;;;9.88;;
8297;SDS011;4187;42.778;23.242;2023-04-09T09:40:11;12.05;;;10.77;;
8297;SDS011;4187;42.778;23.242;2023-04-09T09:42:54;15.50;;;11.13;;
8297;SDS011;4187;42.778;23.242;2023-04-09T09:45:21;10.50;;;9.43;;
8297;SDS011;4187;42.778;23.242;2023-04-09T09:47:50;15.57;;;12.77;;
8297;SDS011;4187;42.778;23.242;2023-04-09T09:50:19;10.85;;;9.82;;
8297;SDS011;4187;42.778;23.242;2023-04-09T09:52:49;12.60;;;11.40;;
8297;SDS011;4187;42.778;23.242;2023-04-09T09:55:19;11.27;;;10.10;;
8297;SDS011;4187;42.778;23.242;2023-04-09T09:57:50;10.82;;;9.75;;
8297;SDS011;4187;42.778;23.242;2023-04-09T10:00:20;10.00;;;9.00;;
8297;SDS011;4187;42.778;23.242;2023-04-09T10:02:51;10.15;;;9.15;;
8297;SDS011;4187;42.778;23.242;2023-04-09T10:05:23;10.45;;;9.55;;
8297;SDS011;4187;42.778;23.242;2023-04-09T10:07:52;10.45;;;9.30;;
8297;SDS011;4187;42.778;23.242;2023-04-09T10:10:20;10.38;;;9.48;;
8297;SDS011;4187;42.778;23.242;2023-04-09T10:12:48;9.65;;;8.75;;
8297;SDS011;4187;42.778;23.242;2023-04-09T10:15:16;10.15;;;9.15;;
8297;SDS011;4187;42.778;23.242;2023-04-09T10:17:45;9.77;;;8.77;;
8297;SDS011;4187;42.778;23.242;2023-04-09T10:20:13;10.60;;;9.60;;
8297;SDS011;4187;42.778;23.242;2023-04-09T10:22:46;10.90;;;9.90;;
8297;SDS011;4187;42.778;23.242;2023-04-09T10:25:15;11.55;;;10.25;;
8297;SDS011;4187;42.778;23.242;2023-04-09T10:27:43;9.80;;;8.90;;
8297;SDS011;4187;42.778;23.242;2023-04-09T10:30:21;9.60;;;8.70;;
8297;SDS011;4187;42.778;23.242;2023-04-09T10:33:07;9.73;;;8.38;;
8297;SDS011;4187;42.778;23.242;2023-04-09T10:35:35;8.73;;;7.93;;
8297;SDS011;4187;42.778;23.242;2023-04-09T10:38:02;9.00;;;8.10;;
8297;SDS011;4187;42.778;23.242;2023-04-09T10:40:32;8.77;;;7.97;;
8297;SDS011;4187;42.778;23.242;2023-04-09T10:42:59;8.90;;;8.10;;
8297;SDS011;4187;42.778;23.242;2023-04-09T10:45:37;8.50;;;7.72;;
8297;SDS011;4187;42.778;23.242;2023-04-09T10:48:05;10.40;;;9.40;;
8297;SDS011;4187;42.778;23.242;2023-04-09T10:50:41;10.52;;;9.43;;
8297;SDS011;4187;42.778;23.242;2023-04-09T10:53:19;10.25;;;9.00;;
8297;SDS011;4187;42.778;23.242;2023-04-09T10:55:48;10.50;;;9.48;;
8297;SDS011;4187;42.778;23.242;2023-04-09T10:58:16;9.63;;;8.73;;
8297;SDS011;4187;42.778;23.242;2023-04-09T11:00:43;8.23;;;7.50;;
8297;SDS011;4187;42.778;23.242;2023-04-09T11:03:20;9.77;;;8.85;;
8297;SDS011;4187;42.778;23.242;2023-04-09T11:05:49;9.23;;;8.30;;
8297;SDS011;4187;42.778;23.242;2023-04-09T11:08:18;7.60;;;6.90;;
8297;SDS011;4187;42.778;23.242;2023-04-09T11:10:46;8.38;;;7.68;;
8297;SDS011;4187;42.778;23.242;2023-04-09T11:13:13;8.70;;;8.00;;
8297;SDS011;4187;42.778;23.242;2023-04-09T11:15:41;9.00;;;8.15;;
8297;SDS011;4187;42.778;23.242;2023-04-09T11:18:16;7.55;;;6.85;;
8297;SDS011;4187;42.778;23.242;2023-04-09T11:23:48;8.25;;;7.47;;
8297;SDS011;4187;42.778;23.242;2023-04-09T11:26:21;9.02;;;8.00;;
8297;SDS011;4187;42.778;23.242;2023-04-09T11:28:49;8.50;;;7.70;;
8297;SDS011;4187;42.778;23.242;2023-04-09T11:31:15;9.38;;;8.00;;
8297;SDS011;4187;42.778;23.242;2023-04-09T11:33:46;7.53;;;6.82;;
8297;SDS011;4187;42.778;23.242;2023-04-09T11:36:12;8.88;;;8.00;;
8297;SDS011;4187;42.778;23.242;2023-04-09T11:38:40;8.20;;;7.40;;
8297;SDS011;4187;42.778;23.242;2023-04-09T11:41:07;8.55;;;7.82;;
8297;SDS011;4187;42.778;23.242;2023-04-09T11:43:37;8.18;;;7.40;;
8297;SDS011;4187;42.778;23.242;2023-04-09T11:46:04;8.30;;;7.50;;
8297;SDS011;4187;42.778;23.242;2023-04-09T11:48:32;9.10;;;8.23;;
8297;SDS011;4187;42.778;23.242;2023-04-09T11:51:01;8.98;;;7.88;;
8297;SDS011;4187;42.778;23.242;2023-04-09T11:53:29;6.90;;;6.20;;
8297;SDS011;4187;42.778;23.242;2023-04-09T11:55:56;7.38;;;6.68;;
8297;SDS011;4187;42.778;23.242;2023-04-09T11:58:24;7.53;;;6.82;;
8297;SDS011;4187;42.778;23.242;2023-04-09T12:00:52;8.13;;;7.32;;
8297;SDS011;4187;42.778;23.242;2023-04-09T12:03:26;8.55;;;7.63;;
8297;SDS011;4187;42.778;23.242;2023-04-09T12:05:54;6.15;;;5.65;;
8297;SDS011;4187;42.778;23.242;2023-04-09T12:08:23;7.75;;;6.85;;
8297;SDS011;4187;42.778;23.242;2023-04-09T12:10:50;6.60;;;6.00;;
8297;SDS011;4187;42.778;23.242;2023-04-09T12:13:17;7.45;;;6.75;;
8297;SDS011;4187;42.778;23.242;2023-04-09T12:15:45;7.30;;;6.55;;
8297;SDS011;4187;42.778;23.242;2023-04-09T12:18:14;6.43;;;5.82;;
8297;SDS011;4187;42.778;23.242;2023-04-09T12:20:42;12.55;;;11.30;;
8297;SDS011;4187;42.778;23.242;2023-04-09T12:23:10;10.45;;;9.35;;
8297;SDS011;4187;42.778;23.242;2023-04-09T12:25:40;8.43;;;7.57;;
8297;SDS011;4187;42.778;23.242;2023-04-09T12:28:10;9.38;;;7.70;;
8297;SDS011;4187;42.778;23.242;2023-04-09T12:30:39;9.57;;;8.65;;
8297;SDS011;4187;42.778;23.242;2023-04-09T12:33:07;8.45;;;7.60;;
8297;SDS011;4187;42.778;23.242;2023-04-09T12:35:34;8.50;;;7.68;;
8297;SDS011;4187;42.778;23.242;2023-04-09T12:38:02;8.88;;;7.90;;
8297;SDS011;4187;42.778;23.242;2023-04-09T12:40:36;8.75;;;7.95;;
8297;SDS011;4187;42.778;23.242;2023-04-09T12:43:11;8.65;;;7.80;;
8297;SDS011;4187;42.778;23.242;2023-04-09T12:45:38;7.60;;;6.90;;
8297;SDS011;4187;42.778;23.242;2023-04-09T12:48:05;8.90;;;8.00;;
8297;SDS011;4187;42.778;23.242;2023-04-09T12:50:32;8.38;;;7.50;;
8297;SDS011;4187;42.778;23.242;2023-04-09T12:52:59;8.45;;;7.63;;
8297;SDS011;4187;42.778;23.242;2023-04-09T12:55:26;7.43;;;6.72;;
8297;SDS011;4187;42.778;23.242;2023-04-09T12:57:54;10.52;;;7.45;;
8297;SDS011;4187;42.778;23.242;2023-04-09T13:00:21;8.65;;;7.85;;
8297;SDS011;4187;42.778;23.242;2023-04-09T13:02:48;10.02;;;8.80;;
8297;SDS011;4187;42.778;23.242;2023-04-09T13:05:16;8.02;;;7.32;;
8297;SDS011;4187;42.778;23.242;2023-04-09T13:07:43;8.25;;;7.45;;
8297;SDS011;4187;42.778;23.242;2023-04-09T13:10:10;9.15;;;8.27;;
8297;SDS011;4187;42.778;23.242;2023-04-09T13:12:37;9.25;;;8.32;;
8297;SDS011;4187;42.778;23.242;2023-04-09T13:15:06;18.13;;;13.20;;
8297;SDS011;4187;42.778;23.242;2023-04-09T13:17:33;58.03;;;30.42;;
8297;SDS011;4187;42.778;23.242;2023-04-09T13:23:07;9.88;;;8.98;;
8297;SDS011;4187;42.778;23.242;2023-04-09T13:25:34;9.23;;;8.23;;
8297;SDS011;4187;42.778;23.242;2023-04-09T13:28:04;9.90;;;9.10;;
8297;SDS011;4187;42.778;23.242;2023-04-09T13:30:32;10.68;;;9.68;;
8297;SDS011;4187;42.778;23.242;2023-04-09T13:32:59;10.80;;;9.55;;
8297;SDS011;4187;42.778;23.242;2023-04-09T13:35:26;13.43;;;11.27;;
8297;SDS011;4187;42.778;23.242;2023-04-09T13:37:53;11.98;;;10.77;;
8297;SDS011;4187;42.778;23.242;2023-04-09T13:40:20;15.38;;;10.50;;
8297;SDS011;4187;42.778;23.242;2023-04-09T13:42:46;13.35;;;11.40;;
8297;SDS011;4187;42.778;23.242;2023-04-09T13:45:13;11.50;;;10.30;;
8297;SDS011;4187;42.778;23.242;2023-04-09T13:47:44;11.77;;;10.63;;
8297;SDS011;4187;42.778;23.242;2023-04-09T13:50:11;10.27;;;9.27;;
8297;SDS011;4187;42.778;23.242;2023-04-09T13:52:38;11.77;;;10.57;;
8297;SDS011;4187;42.778;23.242;2023-04-09T13:55:05;11.07;;;9.98;;
8297;SDS011;4187;42.778;23.242;2023-04-09T13:57:33;12.23;;;11.02;;
8297;SDS011;4187;42.778;23.242;2023-04-09T14:00:00;13.52;;;11.45;;
8297;SDS011;4187;42.778;23.242;2023-04-09T14:02:29;13.68;;;12.25;;
8297;SDS011;4187;42.778;23.242;2023-04-09T14:04:57;18.05;;;15.82;;
8297;SDS011;4187;42.778;23.242;2023-04-09T14:07:24;18.85;;;16.88;;
8297;SDS011;4187;42.778;23.242;2023-04-09T14:09:51;16.90;;;15.25;;
8297;SDS011;4187;42.778;23.242;2023-04-09T14:12:17;22.05;;;15.52;;
8297;SDS011;4187;42.778;23.242;2023-04-09T14:14:44;16.85;;;14.25;;
8297;SDS011;4187;42.778;23.242;2023-04-09T14:17:11;16.85;;;15.15;;
8297;SDS011;4187;42.778;23.242;2023-04-09T14:19:38;17.95;;;15.07;;
8297;SDS011;4187;42.778;23.242;2023-04-09T14:22:06;15.93;;;14.23;;
8297;SDS011;4187;42.778;23.242;2023-04-09T14:24:34;15.10;;;12.00;;
8297;SDS011;4187;42.778;23.242;2023-04-09T14:27:04;11.75;;;10.65;;
8297;SDS011;4187;42.778;23.242;2023-04-09T14:29:31;12.82;;;11.63;;
8297;SDS011;4187;42.778;23.242;2023-04-09T14:31:58;13.57;;;12.30;;
8297;SDS011;4187;42.778;23.242;2023-04-09T14:34:26;12.00;;;10.90;;
8297;SDS011;4187;42.778;23.242;2023-04-09T14:36:54;13.43;;;12.02;;
8297;SDS011;4187;42.778;23.242;2023-04-09T14:39:22;11.95;;;10.75;;
8297;SDS011;4187;42.778;23.242;2023-04-09T14:41:49;13.02;;;11.82;;
8297;SDS011;4187;42.778;23.242;2023-04-09T14:44:16;12.60;;;11.40;;
8297;SDS011;4187;42.778;23.242;2023-04-09T14:46:43;12.77;;;11.48;;
8297;SDS011;4187;42.778;23.242;2023-04-09T14:49:10;12.85;;;11.55;;
8297;SDS011;4187;42.778;23.242;2023-04-09T14:51:37;13.98;;;12.57;;